createdAt,value
2018-07-23T00:01:25.331Z,99.90
2018-07-23T00:04:36.017Z,99.90
2018-07-23T00:07:45.935Z,99.90
2018-07-23T00:10:55.839Z,99.90
2018-07-23T00:14:06.398Z,99.90
2018-07-23T00:17:17.134Z,99.90
2018-07-23T00:20:26.963Z,99.90
2018-07-23T00:23:37.909Z,99.90
2018-07-23T00:26:49.042Z,99.90
2018-07-23T00:29:59.734Z,99.90
2018-07-23T00:33:10.537Z,99.90
2018-07-23T00:36:20.730Z,99.90
2018-07-23T00:39:31.376Z,99.90
2018-07-23T00:42:41.516Z,99.90
2018-07-23T00:45:52.263Z,99.90
2018-07-23T00:49:02.164Z,99.90
2018-07-23T00:52:12.008Z,99.90
2018-07-23T00:55:21.880Z,99.90
2018-07-23T00:58:32.754Z,99.90
2018-07-23T01:01:42.957Z,99.90
2018-07-23T01:04:53.745Z,99.90
2018-07-23T01:08:04.621Z,99.90
2018-07-23T01:11:15.395Z,99.90
2018-07-23T01:14:25.631Z,99.90
2018-07-23T01:17:36.344Z,99.90
2018-07-23T01:20:46.194Z,99.90
2018-07-23T01:23:56.442Z,99.90
2018-07-23T01:27:07.073Z,99.90
2018-07-23T01:30:17.892Z,99.90
2018-07-23T01:33:28.639Z,99.90
2018-07-23T01:36:39.301Z,99.90
2018-07-23T01:39:49.208Z,99.90
2018-07-23T01:42:59.053Z,99.90
2018-07-23T01:46:09.039Z,99.90
2018-07-23T01:49:19.459Z,99.90
2018-07-23T01:52:29.799Z,99.90
2018-07-23T01:55:40.499Z,99.90
2018-07-23T01:58:51.330Z,99.90
2018-07-23T02:02:02.015Z,99.90
2018-07-23T02:05:14.240Z,99.90
2018-07-23T02:08:24.731Z,99.90
2018-07-23T02:11:34.853Z,99.90
2018-07-23T02:14:45.242Z,99.90
2018-07-23T02:17:55.497Z,99.90
2018-07-23T02:21:05.783Z,99.90
2018-07-23T02:24:16.964Z,99.90
2018-07-23T02:27:27.428Z,99.90
2018-07-23T02:30:38.148Z,99.90
2018-07-23T02:33:48.749Z,99.90
2018-07-23T02:36:58.934Z,99.90
2018-07-23T02:40:09.426Z,99.90
2018-07-23T02:43:19.343Z,99.90
2018-07-23T02:46:30.112Z,99.90
2018-07-23T02:49:40.607Z,99.90
2018-07-23T02:52:51.194Z,99.90
2018-07-23T02:56:01.206Z,99.90
2018-07-23T02:59:11.059Z,99.90
2018-07-23T03:02:21.121Z,99.90
2018-07-23T03:05:30.948Z,99.90
2018-07-23T03:08:41.565Z,99.90
2018-07-23T03:11:51.655Z,99.90
2018-07-23T03:15:02.469Z,99.90
2018-07-23T03:18:12.707Z,99.90
2018-07-23T03:21:23.039Z,99.90
2018-07-23T03:24:34.456Z,99.90
2018-07-23T03:27:45.052Z,99.90
2018-07-23T03:30:54.889Z,99.90
2018-07-23T03:34:05.743Z,99.90
2018-07-23T03:37:16.933Z,99.90
2018-07-23T03:40:27.561Z,99.90
2018-07-23T03:43:38.325Z,99.90
2018-07-23T03:46:49.219Z,99.90
2018-07-23T03:49:59.882Z,99.90
2018-07-23T03:53:09.807Z,99.90
2018-07-23T03:56:20.752Z,99.90
2018-07-23T03:59:31.858Z,99.90
2018-07-23T04:02:42.310Z,99.90
2018-07-23T04:05:52.274Z,99.90
2018-07-23T04:09:02.286Z,99.90
2018-07-23T04:12:12.894Z,99.90
2018-07-23T04:15:22.802Z,99.90
2018-07-23T04:18:33.533Z,99.90
2018-07-23T04:21:43.486Z,99.90
2018-07-23T04:24:53.714Z,99.90
2018-07-23T04:28:04.355Z,99.90
2018-07-23T04:31:15.034Z,99.90
2018-07-23T04:34:25.465Z,99.90
2018-07-23T04:37:36.167Z,99.90
2018-07-23T04:40:46.483Z,99.90
2018-07-23T04:43:56.382Z,99.90
2018-07-23T04:47:06.374Z,99.90
2018-07-23T04:50:17.003Z,99.90
2018-07-23T04:53:26.885Z,99.90
2018-07-23T04:56:36.789Z,99.90
2018-07-23T04:59:47.375Z,99.90
2018-07-23T05:02:57.347Z,99.90
2018-07-23T05:06:07.276Z,99.90
2018-07-23T05:09:17.887Z,99.90
2018-07-23T05:12:28.763Z,99.90
2018-07-23T05:15:38.635Z,99.90
2018-07-23T05:18:48.522Z,99.90
2018-07-23T05:21:59.341Z,99.90
2018-07-23T05:25:10.067Z,99.90
2018-07-23T05:28:20.055Z,99.90
2018-07-23T05:31:29.980Z,99.90
2018-07-23T05:34:40.823Z,99.90
2018-07-23T05:37:50.696Z,99.90
2018-07-23T05:41:00.767Z,99.90
2018-07-23T05:44:10.612Z,99.90
2018-07-23T05:47:21.383Z,99.90
2018-07-23T05:50:32.513Z,99.90
2018-07-23T05:53:42.943Z,99.90
2018-07-23T05:56:52.927Z,99.90
2018-07-23T06:00:02.871Z,99.90
2018-07-23T06:03:12.930Z,99.90
2018-07-23T06:06:22.833Z,99.90
2018-07-23T06:09:33.859Z,99.90
2018-07-23T06:12:43.831Z,99.90
2018-07-23T06:15:54.642Z,99.90
2018-07-23T06:19:05.596Z,99.90
2018-07-23T06:22:16.086Z,99.90
2018-07-23T06:25:26.867Z,99.90
2018-07-23T06:28:37.619Z,99.90
2018-07-23T06:31:47.699Z,99.90
2018-07-23T06:34:58.519Z,99.90
2018-07-23T06:38:09.310Z,99.90
2018-07-23T06:44:29.603Z,99.90
2018-07-23T06:47:40.357Z,99.90
2018-07-23T06:50:51.041Z,99.90
2018-07-23T06:54:00.965Z,99.90
2018-07-23T06:57:11.987Z,99.90
2018-07-23T07:00:22.726Z,99.90
2018-07-23T07:03:33.466Z,99.90
2018-07-23T07:06:44.188Z,99.90
2018-07-23T07:09:54.279Z,99.90
2018-07-23T07:13:05.000Z,99.90
2018-07-23T07:16:15.172Z,99.90
2018-07-23T07:19:25.811Z,99.90
2018-07-23T07:22:35.713Z,99.90
2018-07-23T07:25:46.015Z,99.90
2018-07-23T07:28:56.519Z,99.90
2018-07-23T07:32:07.417Z,99.90
2018-07-23T07:35:17.979Z,99.90
2018-07-23T07:38:29.020Z,99.90
2018-07-23T07:41:39.850Z,99.90
2018-07-23T07:44:50.519Z,99.90
2018-07-23T07:48:01.342Z,99.90
2018-07-23T07:51:12.027Z,99.90
2018-07-23T07:54:22.794Z,99.90
2018-07-23T07:57:33.707Z,99.90
2018-07-23T08:00:43.632Z,99.90
2018-07-23T08:03:54.233Z,99.90
2018-07-23T08:07:04.298Z,99.90
2018-07-23T08:10:14.996Z,99.90
2018-07-23T08:13:25.502Z,99.90
2018-07-23T08:16:36.483Z,99.90
2018-07-23T08:19:46.964Z,99.90
2018-07-23T08:22:57.137Z,99.90
2018-07-23T08:26:07.242Z,99.90
2018-07-23T08:29:16.763Z,99.90
2018-07-23T08:32:27.210Z,99.90
2018-07-23T08:35:37.506Z,99.90
2018-07-23T08:38:47.459Z,99.90
2018-07-23T08:41:57.372Z,99.90
2018-07-23T08:45:07.628Z,99.90
2018-07-23T08:48:18.374Z,99.90
2018-07-23T08:51:28.284Z,99.90
2018-07-23T08:54:39.879Z,99.90
2018-07-23T08:57:49.909Z,99.90
2018-07-23T09:01:00.148Z,99.90
2018-07-23T09:04:10.352Z,99.90
2018-07-23T09:07:20.322Z,99.90
2018-07-23T09:10:30.796Z,99.90
2018-07-23T09:13:40.666Z,99.90
2018-07-23T09:16:50.545Z,99.90
2018-07-23T09:20:01.006Z,99.90
2018-07-23T09:23:11.502Z,99.90
2018-07-23T09:26:21.578Z,99.90
2018-07-23T09:29:32.158Z,99.90
2018-07-23T09:32:42.643Z,99.90
2018-07-23T09:35:53.254Z,99.90
2018-07-23T09:39:04.004Z,99.90
2018-07-23T09:42:14.343Z,99.90
2018-07-23T09:45:24.093Z,99.90
2018-07-23T09:48:33.922Z,99.90
2018-07-23T09:51:43.977Z,99.90
2018-07-23T09:54:53.987Z,99.90
2018-07-23T09:58:04.731Z,99.90
2018-07-23T10:01:18.178Z,99.90
2018-07-23T10:04:28.072Z,99.90
2018-07-23T10:07:37.664Z,99.50
2018-07-23T10:10:47.214Z,98.30
2018-07-23T10:13:57.299Z,99.10
2018-07-23T10:17:07.039Z,99.90
2018-07-23T10:20:17.367Z,99.50
2018-07-23T10:23:26.915Z,99.20
2018-07-23T10:26:37.150Z,98.60
2018-07-23T10:29:47.576Z,98.80
2018-07-23T10:32:57.474Z,98.50
2018-07-23T10:36:07.270Z,97.60
2018-07-23T10:39:17.101Z,96.80
2018-07-23T10:42:27.186Z,95.80
2018-07-23T10:45:37.831Z,96.10
2018-07-23T10:48:47.742Z,94.70
2018-07-23T10:51:57.705Z,95.80
2018-07-23T10:55:07.696Z,94.80
2018-07-23T10:58:17.614Z,95.00
2018-07-23T11:01:27.349Z,94.60
2018-07-23T11:04:37.236Z,94.70
2018-07-23T11:07:47.120Z,95.90
2018-07-23T11:10:56.959Z,95.30
2018-07-23T11:14:07.065Z,94.00
2018-07-23T11:17:17.583Z,95.10
2018-07-23T11:20:27.583Z,94.20
2018-07-23T11:23:38.075Z,93.60
2018-07-23T11:26:48.202Z,92.70
2018-07-23T11:29:58.598Z,92.40
2018-07-23T11:33:08.348Z,92.50
2018-07-23T11:36:18.116Z,91.50
2018-07-23T11:39:27.855Z,91.00
2018-07-23T11:42:38.012Z,91.40
2018-07-23T11:45:48.669Z,91.50
2018-07-23T11:48:58.820Z,90.80
2018-07-23T11:52:14.357Z,90.80
2018-07-23T11:55:19.107Z,90.70
2018-07-23T11:58:28.791Z,90.70
2018-07-23T12:01:38.640Z,90.80
2018-07-23T12:04:49.292Z,90.70
2018-07-23T12:07:59.447Z,90.40
2018-07-23T12:11:09.166Z,89.70
2018-07-23T12:14:18.970Z,87.80
2018-07-23T12:17:28.971Z,87.00
2018-07-23T12:20:38.825Z,84.80
2018-07-23T12:23:48.595Z,83.60
2018-07-23T12:26:58.855Z,83.80
2018-07-23T12:30:09.410Z,84.80
2018-07-23T12:33:19.009Z,84.20
2018-07-23T12:36:28.591Z,84.20
2018-07-23T12:39:38.439Z,80.00
2018-07-23T12:42:48.280Z,79.70
2018-07-23T12:45:57.831Z,77.50
2018-07-23T12:49:08.319Z,79.50
2018-07-23T12:52:18.414Z,78.80
2018-07-23T12:55:28.081Z,77.80
2018-07-23T12:58:37.949Z,77.90
2018-07-23T13:01:47.568Z,77.60
2018-07-23T13:04:58.046Z,77.40
2018-07-23T13:08:08.284Z,78.50
2018-07-23T13:11:18.917Z,76.90
2018-07-23T13:14:28.729Z,76.40
2018-07-23T13:17:38.668Z,74.90
2018-07-23T13:20:48.536Z,74.60
2018-07-23T13:23:58.365Z,74.90
2018-07-23T13:27:08.999Z,73.80
2018-07-23T13:30:18.979Z,75.00
2018-07-23T13:33:28.805Z,75.60
2018-07-23T13:36:39.185Z,74.60
2018-07-23T13:39:49.714Z,74.50
2018-07-23T13:42:59.661Z,74.20
2018-07-23T13:46:09.402Z,73.80
2018-07-23T13:49:19.406Z,73.90
2018-07-23T13:52:29.415Z,72.70
2018-07-23T13:55:39.156Z,73.00
2018-07-23T13:58:49.143Z,73.00
2018-07-23T14:01:58.893Z,71.80
2018-07-23T14:05:09.116Z,71.90
2018-07-23T14:08:19.057Z,69.10
2018-07-23T14:11:29.132Z,68.90
2018-07-23T14:14:38.973Z,67.90
2018-07-23T14:17:49.034Z,66.80
2018-07-23T14:20:58.887Z,67.40
2018-07-23T14:24:14.405Z,70.60
2018-07-23T14:31:10.366Z,69.30
2018-07-23T14:34:20.800Z,70.20
2018-07-23T14:37:30.709Z,69.20
2018-07-23T14:40:40.711Z,69.80
2018-07-23T14:43:50.609Z,69.70
2018-07-23T14:47:00.565Z,70.60
2018-07-23T14:50:10.840Z,69.90
2018-07-23T14:53:21.010Z,69.90
2018-07-23T14:56:31.586Z,69.70
2018-07-23T14:59:41.505Z,69.00
2018-07-23T15:02:51.717Z,68.90
2018-07-23T15:06:01.519Z,68.60
2018-07-23T15:09:11.751Z,68.10
2018-07-23T15:12:21.798Z,70.40
2018-07-23T15:15:32.352Z,66.30
2018-07-23T15:18:42.934Z,67.40
2018-07-23T15:21:53.078Z,66.60
2018-07-23T15:28:49.285Z,66.00
2018-07-23T15:32:00.086Z,63.90
2018-07-23T15:35:10.146Z,62.20
2018-07-23T15:38:19.821Z,63.30
2018-07-23T15:41:29.544Z,63.30
2018-07-23T15:44:39.789Z,61.60
2018-07-23T15:47:49.388Z,62.60
2018-07-23T15:50:59.725Z,61.00
2018-07-23T15:54:09.858Z,61.10
2018-07-23T15:57:19.738Z,61.80
2018-07-23T16:00:39.288Z,62.40
2018-07-23T16:06:59.033Z,62.30
2018-07-23T16:10:09.084Z,64.20
2018-07-23T16:13:18.957Z,63.40
2018-07-23T16:16:29.031Z,64.90
2018-07-23T16:19:38.675Z,64.10
2018-07-23T16:22:49.428Z,63.80
2018-07-23T16:25:59.219Z,62.10
2018-07-23T16:29:09.138Z,62.70
2018-07-23T16:32:19.557Z,62.50
2018-07-23T16:35:30.081Z,63.60
2018-07-23T16:38:40.179Z,63.50
2018-07-23T16:41:50.454Z,63.20
2018-07-23T16:45:00.837Z,63.50
2018-07-23T16:48:10.871Z,63.50
2018-07-23T16:51:21.402Z,64.50
2018-07-23T16:54:31.524Z,65.90
2018-07-23T16:57:42.249Z,66.10
2018-07-23T17:00:52.511Z,65.50
2018-07-23T17:04:03.235Z,65.00
2018-07-23T17:07:13.924Z,65.20
2018-07-23T17:10:23.607Z,66.10
2018-07-23T17:16:43.410Z,66.00
2018-07-23T17:19:53.847Z,65.70
2018-07-23T17:23:04.590Z,65.00
2018-07-23T17:26:15.112Z,66.10
2018-07-23T17:29:25.346Z,66.30
2018-07-23T17:32:35.772Z,65.50
2018-07-23T17:38:56.361Z,66.50
2018-07-23T17:42:06.928Z,67.00
2018-07-23T17:45:16.786Z,66.70
2018-07-23T17:48:27.002Z,66.70
2018-07-23T17:51:37.078Z,66.70
2018-07-23T17:54:46.910Z,67.00
2018-07-23T17:57:57.667Z,67.50
2018-07-23T18:01:08.121Z,68.60
2018-07-23T18:04:17.905Z,69.10
2018-07-23T18:07:27.923Z,68.60
2018-07-23T18:10:37.670Z,69.00
2018-07-23T18:13:47.622Z,68.80
2018-07-23T18:16:57.779Z,69.10
2018-07-23T18:20:08.586Z,69.00
2018-07-23T18:23:18.835Z,70.80
2018-07-23T18:26:28.669Z,70.40
2018-07-23T18:29:38.304Z,71.00
2018-07-23T18:32:49.034Z,70.80
2018-07-23T18:35:58.759Z,71.50
2018-07-23T18:39:10.976Z,71.90
2018-07-23T18:42:20.685Z,72.60
2018-07-23T18:45:30.786Z,74.30
2018-07-23T18:52:23.084Z,76.10
2018-07-23T18:55:33.167Z,76.40
2018-07-23T18:58:43.138Z,75.80
2018-07-23T19:01:54.421Z,76.10
2018-07-23T19:05:05.251Z,75.70
2018-07-23T19:08:15.415Z,77.90
2018-07-23T19:11:25.271Z,78.60
2018-07-23T19:14:35.699Z,78.70
2018-07-23T19:17:45.558Z,78.60
2018-07-23T19:20:55.540Z,80.10
2018-07-23T19:24:05.982Z,78.90
2018-07-23T19:27:16.024Z,79.30
2018-07-23T19:30:25.837Z,80.00
2018-07-23T19:33:36.002Z,80.60
2018-07-23T19:36:46.033Z,80.70
2018-07-23T19:39:56.185Z,80.10
2018-07-23T19:43:06.341Z,81.10
2018-07-23T19:46:16.041Z,81.00
2018-07-23T19:49:26.099Z,82.80
2018-07-23T19:52:36.263Z,83.60
2018-07-23T19:55:46.316Z,84.40
2018-07-23T19:58:56.299Z,84.90
2018-07-23T20:02:06.627Z,85.30
2018-07-23T20:05:16.744Z,85.60
2018-07-23T20:08:28.077Z,86.20
2018-07-23T20:11:38.333Z,86.30
2018-07-23T20:14:48.776Z,86.80
2018-07-23T20:17:58.888Z,87.70
2018-07-23T20:21:08.529Z,87.80
2018-07-23T20:24:18.414Z,88.80
2018-07-23T20:27:28.848Z,89.70
2018-07-23T20:30:39.002Z,90.00
2018-07-23T20:33:50.024Z,90.30
2018-07-23T20:37:00.769Z,90.50
2018-07-23T20:40:11.306Z,91.10
2018-07-23T20:43:22.078Z,91.00
2018-07-23T20:46:32.155Z,91.30
2018-07-23T20:49:42.741Z,91.60
2018-07-23T20:52:53.045Z,92.40
2018-07-23T20:56:03.204Z,92.50
2018-07-23T20:59:13.296Z,92.60
2018-07-23T21:02:24.064Z,92.90
2018-07-23T21:05:34.628Z,93.20
2018-07-23T21:08:45.260Z,93.50
2018-07-23T21:11:55.770Z,94.30
2018-07-23T21:15:07.243Z,93.80
2018-07-23T21:18:17.898Z,94.00
2018-07-23T21:21:28.741Z,94.30
2018-07-23T21:24:38.694Z,94.50
2018-07-23T21:27:49.603Z,94.90
2018-07-23T21:31:00.156Z,95.20
2018-07-23T21:34:10.748Z,95.70
2018-07-23T21:37:20.742Z,96.30
2018-07-23T21:40:30.863Z,96.70
2018-07-23T21:46:50.989Z,97.20
2018-07-23T21:50:01.922Z,97.30
2018-07-23T21:53:12.361Z,97.30
2018-07-23T21:56:23.245Z,97.50
2018-07-23T21:59:33.871Z,97.50
2018-07-23T22:02:43.819Z,98.00
2018-07-23T22:05:54.598Z,98.00
2018-07-23T22:09:07.658Z,98.30
2018-07-23T22:12:17.989Z,98.10
2018-07-23T22:15:28.049Z,98.50
2018-07-23T22:18:38.074Z,98.90
2018-07-23T22:21:48.044Z,99.20
2018-07-23T22:24:57.941Z,99.60
2018-07-23T22:31:18.099Z,99.90
2018-07-23T22:34:28.446Z,99.90
2018-07-23T22:37:38.910Z,99.90
2018-07-23T22:40:50.799Z,99.90
2018-07-23T22:44:02.713Z,99.90
2018-07-23T22:47:12.846Z,99.90
2018-07-23T22:50:23.950Z,99.90
2018-07-23T22:53:34.302Z,99.90
2018-07-23T22:56:45.083Z,99.90
2018-07-23T22:59:55.308Z,99.90
2018-07-23T23:03:06.024Z,99.90
2018-07-23T23:06:17.554Z,99.90
2018-07-23T23:09:27.572Z,99.90
2018-07-23T23:12:37.819Z,99.90
2018-07-23T23:15:49.097Z,99.90
2018-07-23T23:18:59.398Z,99.90
2018-07-23T23:22:10.279Z,99.90
2018-07-23T23:25:20.518Z,99.90
2018-07-23T23:28:31.380Z,99.90
2018-07-23T23:31:41.341Z,99.90
2018-07-23T23:34:51.781Z,99.90
2018-07-23T23:38:02.505Z,99.90
2018-07-23T23:41:12.530Z,99.90
2018-07-23T23:44:22.570Z,99.90
2018-07-23T23:47:33.073Z,99.90
2018-07-23T23:50:43.062Z,99.90
2018-07-23T23:53:53.086Z,99.90
2018-07-23T23:57:02.996Z,99.90
